Time;durP1;ratioP1;P1;durP2;ratioP2;P2;SDS_P1;SDS_P2;PMS_P1;PMS_P2;Temp;Humidity;BMP_temperature;BMP_pressure;BME280_temperature;BME280_humidity;BME280_pressure;Samples;Min_cycle;Max_cycle;Signal;HPM_P1;HPM_P2
2023/01/20 00:03:13;;;;;;;46.28;17.02;;;;;;;3.56;75.76;99796.59;10308724;28;20035;-63
2023/01/20 00:08:14;;;;;;;39.47;16.35;;;;;;;3.40;75.80;99799.03;10310837;28;20055;-62
2023/01/20 00:13:15;;;;;;;41.78;16.58;;;;;;;3.22;76.48;99809.53;10310398;28;20058;-61
2023/01/20 00:18:16;;;;;;;37.13;16.23;;;;;;;3.36;75.91;99801.13;10303563;28;20077;-59
2023/01/20 00:23:18;;;;;;;42.03;15.85;;;;;;;3.26;75.48;99813.59;10300581;28;20051;-58
2023/01/20 00:28:19;;;;;;;37.03;15.02;;;;;;;3.05;76.34;99826.19;10310521;28;20134;-61
2023/01/20 00:33:20;;;;;;;47.03;17.40;;;;;;;2.86;76.23;99833.16;10314065;28;20059;-61
2023/01/20 00:38:22;;;;;;;40.55;16.63;;;;;;;2.90;76.00;99836.38;10313628;28;20054;-60
2023/01/20 00:43:24;;;;;;;37.60;16.75;;;;;;;2.96;76.00;99839.31;10314031;28;20046;-59
2023/01/20 00:48:25;;;;;;;43.50;18.17;;;;;;;2.91;76.10;99846.03;10314727;28;20058;-59
2023/01/20 00:53:26;;;;;;;43.70;17.08;;;;;;;2.87;76.35;99845.47;10311062;28;20061;-60
2023/01/20 00:58:28;;;;;;;40.85;17.85;;;;;;;3.01;75.47;99856.66;10314916;28;20050;-61
2023/01/20 01:03:29;;;;;;;46.28;19.20;;;;;;;3.13;75.42;99859.00;10313356;28;20043;-59
2023/01/20 01:08:31;;;;;;;41.40;16.70;;;;;;;3.08;75.36;99860.41;10311449;28;20053;-60
2023/01/20 01:13:33;;;;;;;47.90;16.45;;;;;;;3.01;75.22;99869.94;10313352;28;20469;-61
2023/01/20 01:18:34;;;;;;;49.35;17.80;;;;;;;2.83;75.72;99867.97;10310658;28;20047;-59
2023/01/20 01:23:36;;;;;;;43.53;16.13;;;;;;;2.87;75.15;99876.50;10312365;28;20042;-59
2023/01/20 01:28:38;;;;;;;57.67;18.33;;;;;;;2.89;75.73;99877.19;10309290;28;20046;-61
2023/01/20 01:33:40;;;;;;;134.70;19.65;;;;;;;2.78;75.51;99888.75;10308364;28;20047;-59
2023/01/20 01:38:42;;;;;;;68.10;18.02;;;;;;;2.89;75.33;99896.59;10313637;28;20047;-61
2023/01/20 01:44:02;;;;;;;72.00;19.80;;;;;;;2.90;74.92;99894.78;10314400;28;20047;-61
2023/01/20 01:49:10;;;;;;;252.15;24.75;;;;;;;2.81;75.40;99893.78;10315051;28;20058;-61
2023/01/20 01:54:15;;;;;;;66.45;17.63;;;;;;;2.70;75.03;99891.25;10312551;28;20713;-60
2023/01/20 01:59:17;;;;;;;198.63;22.77;;;;;;;2.82;75.41;99905.25;10312617;28;20046;-59
2023/01/20 02:04:22;;;;;;;196.52;26.33;;;;;;;2.77;74.71;99906.50;10286990;28;20078;-61
2023/01/20 02:09:25;;;;;;;216.95;21.67;;;;;;;2.58;75.49;99912.59;10276789;28;20422;-61
2023/01/20 02:14:33;;;;;;;228.57;26.25;;;;;;;2.26;75.96;99912.75;10282280;28;20085;-61
2023/01/20 02:19:34;;;;;;;123.95;21.67;;;;;;;2.25;76.33;99932.31;10277636;28;20130;-61
2023/01/20 02:24:59;;;;;;;493.75;33.60;;;;;;;2.40;75.14;99934.59;10273088;28;20122;-61
2023/01/20 02:30:25;;;;;;;249.82;25.08;;;;;;;2.34;75.51;99942.09;10275495;28;20117;-61
2023/01/20 02:35:35;;;;;;;235.13;22.25;;;;;;;2.42;74.96;99945.91;10281115;28;20055;-62
2023/01/20 02:41:06;;;;;;;282.48;27.30;;;;;;;2.41;75.43;99957.47;10275407;28;20074;-61
2023/01/20 02:46:13;;;;;;;121.35;17.83;;;;;;;2.38;75.25;99955.94;10278644;28;20054;-62
2023/01/20 02:51:24;;;;;;;97.47;18.60;;;;;;;2.49;75.31;99958.50;10277065;28;20114;-61
2023/01/20 02:56:28;;;;;;;82.95;18.10;;;;;;;2.48;75.62;99963.94;10279502;28;20137;-61
2023/01/20 03:01:35;;;;;;;186.20;20.48;;;;;;;2.50;75.60;99967.31;10277682;28;20086;-61
2023/01/20 03:06:42;;;;;;;163.07;20.05;;;;;;;2.55;75.63;99981.84;10274812;28;20047;-61
2023/01/20 03:11:52;;;;;;;331.73;31.77;;;;;;;2.53;75.09;99981.16;10260825;28;20416;-61
2023/01/20 03:16:54;;;;;;;126.68;20.27;;;;;;;2.50;74.93;99992.00;10273928;28;20090;-61
2023/01/20 03:21:56;;;;;;;227.55;27.00;;;;;;;2.33;75.33;99995.28;10272936;28;20054;-62
2023/01/20 03:26:58;;;;;;;226.65;22.75;;;;;;;2.40;75.69;100000.91;10275605;28;20050;-62
2023/01/20 03:32:02;;;;;;;99.90;18.02;;;;;;;2.38;75.46;100001.88;10270332;28;20141;-62
2023/01/20 03:37:04;;;;;;;533.08;33.60;;;;;;;2.40;75.44;100007.03;10273944;28;20574;-63
2023/01/20 03:42:12;;;;;;;213.88;21.75;;;;;;;2.36;75.36;100010.94;10274212;28;20058;-62
2023/01/20 03:47:32;;;;;;;385.75;31.83;;;;;;;2.41;75.71;100016.69;10274708;28;20054;-62
2023/01/20 03:52:44;;;;;;;177.18;20.13;;;;;;;2.33;75.61;100011.19;10270784;28;20078;-62
2023/01/20 03:58:03;;;;;;;333.00;32.45;;;;;;;2.40;75.14;100020.31;10269755;28;20051;-61
2023/01/20 04:03:11;;;;;;;220.75;24.67;;;;;;;2.40;75.61;100015.00;10272225;28;20059;-62
2023/01/20 04:08:16;;;;;;;429.20;29.65;;;;;;;2.44;75.78;100040.28;10271199;28;20475;-62
2023/01/20 04:13:17;;;;;;;232.95;27.77;;;;;;;2.37;75.69;100032.03;10272501;28;20130;-62
2023/01/20 04:18:21;;;;;;;170.93;22.27;;;;;;;2.31;75.60;100039.66;10272370;28;20089;-62
2023/01/20 04:23:29;;;;;;;227.65;20.73;;;;;;;2.23;75.76;100042.13;10271676;28;20074;-62
2023/01/20 04:28:31;;;;;;;316.25;24.77;;;;;;;2.09;76.00;100035.31;10268892;28;20055;-62
2023/01/20 04:33:36;;;;;;;143.88;19.10;;;;;;;2.14;75.25;100049.06;10272349;28;20130;-61
2023/01/20 04:38:37;;;;;;;64.70;15.52;;;;;;;2.10;76.27;100056.41;10272472;28;20143;-62
2023/01/20 04:43:43;;;;;;;216.55;20.45;;;;;;;2.17;76.01;100054.06;10271204;28;20105;-61
2023/01/20 04:48:45;;;;;;;244.27;21.55;;;;;;;2.17;75.93;100056.72;10274496;28;20051;-62
2023/01/20 04:53:46;;;;;;;111.95;18.88;;;;;;;2.18;75.83;100047.81;10266866;28;20066;-62
2023/01/20 04:58:47;;;;;;;95.95;19.75;;;;;;;2.30;75.59;100061.84;10271671;28;20066;-62
2023/01/20 05:03:49;;;;;;;200.00;22.85;;;;;;;2.35;76.12;100068.47;10271918;28;20129;-62
2023/01/20 05:08:50;;;;;;;80.78;16.60;;;;;;;2.36;75.54;100067.47;10271180;28;20078;-62
2023/01/20 05:13:52;;;;;;;115.68;19.10;;;;;;;2.36;75.91;100061.31;10272700;28;20126;-62
2023/01/20 05:18:53;;;;;;;50.65;16.75;;;;;;;2.44;75.49;100076.59;10277781;28;20133;-62
2023/01/20 05:23:56;;;;;;;59.03;16.08;;;;;;;2.53;76.01;100081.97;10281043;28;20110;-61
2023/01/20 05:28:57;;;;;;;52.53;14.68;;;;;;;2.52;75.93;100084.75;10279509;28;20521;-61
2023/01/20 05:33:58;;;;;;;42.80;13.75;;;;;;;2.61;75.54;100080.44;10277543;28;20082;-61
2023/01/20 05:39:00;;;;;;;44.40;15.73;;;;;;;2.65;75.59;100090.69;10280182;28;20039;-61
2023/01/20 05:44:01;;;;;;;48.83;15.15;;;;;;;2.63;75.65;100091.78;10277623;28;20071;-62
2023/01/20 05:49:03;;;;;;;47.50;13.43;;;;;;;2.65;75.98;100108.44;10280957;28;20677;-62
2023/01/20 05:54:04;;;;;;;44.58;14.45;;;;;;;2.52;75.73;100120.06;10278040;28;20070;-62
2023/01/20 05:59:06;;;;;;;57.10;16.08;;;;;;;2.56;75.89;100129.44;10276294;28;20154;-62
2023/01/20 06:04:08;;;;;;;45.50;14.93;;;;;;;2.58;75.49;100124.84;10278355;28;20082;-62
2023/01/20 06:09:09;;;;;;;33.08;13.07;;;;;;;2.67;75.30;100143.63;10278800;28;20121;-61
2023/01/20 06:14:11;;;;;;;44.47;14.65;;;;;;;2.70;75.63;100141.53;10276427;28;20126;-61
2023/01/20 06:19:12;;;;;;;43.88;15.13;;;;;;;2.71;75.56;100140.56;10259441;28;20062;-62
2023/01/20 06:24:14;;;;;;;36.30;14.05;;;;;;;2.69;76.00;100154.97;10280174;28;20137;-60
2023/01/20 06:29:15;;;;;;;39.22;13.57;;;;;;;2.76;75.62;100151.66;10274017;28;20102;-62
2023/01/20 06:34:16;;;;;;;36.20;13.98;;;;;;;2.79;75.49;100163.81;10272558;28;20113;-62
2023/01/20 06:39:18;;;;;;;34.95;12.43;;;;;;;2.81;75.77;100177.78;10277785;28;20577;-63
2023/01/20 06:44:19;;;;;;;28.33;11.70;;;;;;;2.77;75.97;100171.91;10281666;28;20564;-63
2023/01/20 06:49:20;;;;;;;28.52;12.20;;;;;;;2.79;75.58;100187.69;10274832;28;20047;-60
2023/01/20 06:54:22;;;;;;;28.85;12.60;;;;;;;2.82;75.51;100199.88;10274421;28;20133;-61
2023/01/20 06:59:23;;;;;;;24.20;11.82;;;;;;;2.69;75.53;100200.06;10276121;28;20189;-62
2023/01/20 07:04:25;;;;;;;32.25;13.00;;;;;;;2.73;75.51;100193.53;10274710;28;20145;-68
2023/01/20 07:09:26;;;;;;;37.50;14.05;;;;;;;2.87;75.50;100206.47;10259046;28;20486;-66
2023/01/20 07:14:27;;;;;;;38.72;14.18;;;;;;;2.93;75.49;100205.94;10277065;28;20143;-66
2023/01/20 07:19:29;;;;;;;36.58;13.85;;;;;;;2.98;75.25;100211.72;10274278;28;20067;-65
2023/01/20 07:24:30;;;;;;;30.13;12.15;;;;;;;3.01;74.70;100215.91;10272164;28;20094;-66
2023/01/20 07:29:31;;;;;;;34.30;13.52;;;;;;;3.01;75.28;100226.53;10274393;28;20057;-64
2023/01/20 07:34:33;;;;;;;33.67;12.70;;;;;;;2.96;75.55;100224.28;10269692;28;20138;-64
2023/01/20 07:39:35;;;;;;;27.73;11.05;;;;;;;2.93;75.09;100231.66;10271539;28;20050;-64
2023/01/20 07:44:36;;;;;;;26.40;11.43;;;;;;;3.03;74.85;100239.69;10274147;28;20062;-65
2023/01/20 07:49:37;;;;;;;31.48;12.23;;;;;;;3.01;75.01;100247.78;10274365;28;20217;-65
2023/01/20 07:54:39;;;;;;;32.72;12.95;;;;;;;2.94;74.85;100252.78;10267969;28;20059;-63
2023/01/20 07:59:40;;;;;;;38.78;13.88;;;;;;;3.01;75.27;100250.44;10271556;28;20469;-65
2023/01/20 08:04:42;;;;;;;36.00;13.23;;;;;;;2.97;74.95;100263.13;10274682;28;20129;-64
2023/01/20 08:09:43;;;;;;;34.20;12.77;;;;;;;3.07;75.08;100267.66;10272397;28;20058;-64
2023/01/20 08:14:44;;;;;;;39.80;15.30;;;;;;;3.15;74.61;100267.84;10257893;28;20153;-63
2023/01/20 08:19:46;;;;;;;49.25;16.25;;;;;;;3.11;75.36;100263.78;10272480;28;20089;-64
2023/01/20 08:24:47;;;;;;;42.05;16.15;;;;;;;3.06;75.43;100269.50;10270199;28;20089;-65
2023/01/20 08:29:48;;;;;;;40.33;14.85;;;;;;;3.11;74.90;100277.88;10274519;28;20082;-64
2023/01/20 08:34:50;;;;;;;52.30;16.13;;;;;;;3.15;75.28;100284.63;10272569;28;20082;-65
2023/01/20 08:39:51;;;;;;;40.67;14.45;;;;;;;2.86;75.55;100289.72;10268649;28;20137;-65
2023/01/20 08:44:53;;;;;;;43.47;15.60;;;;;;;2.94;75.49;100289.94;10272222;28;20071;-65
2023/01/20 08:49:54;;;;;;;47.80;18.58;;;;;;;3.13;75.09;100293.69;10279496;28;20074;-64
2023/01/20 08:54:57;;;;;;;51.90;17.80;;;;;;;3.15;74.93;100297.91;10282487;28;20086;-64
2023/01/20 08:59:58;;;;;;;54.13;19.17;;;;;;;3.24;75.30;100306.06;10281458;28;20055;-65
2023/01/20 09:05:00;;;;;;;55.00;17.58;;;;;;;3.28;75.16;100308.34;10280441;28;20094;-64
2023/01/20 09:10:03;;;;;;;51.35;17.65;;;;;;;3.46;74.69;100318.38;10281205;28;20062;-64
2023/01/20 09:15:06;;;;;;;52.83;17.35;;;;;;;3.61;75.14;100322.38;10278410;28;20502;-64
2023/01/20 09:20:08;;;;;;;51.55;17.42;;;;;;;3.65;74.88;100313.16;10276248;28;20054;-65
2023/01/20 09:25:10;;;;;;;49.78;17.52;;;;;;;3.64;75.12;100332.75;10279843;28;20612;-64
2023/01/20 09:30:11;;;;;;;49.47;16.63;;;;;;;3.30;75.28;100334.78;10276796;28;20047;-64
2023/01/20 09:35:13;;;;;;;68.68;17.40;;;;;;;3.41;74.89;100348.00;10273158;28;20047;-65
2023/01/20 09:45:55;;;;;;;47.20;17.33;;;;;;;3.46;75.18;100342.31;10279548;28;20118;-65
2023/01/20 09:56:26;;;;;;;41.97;15.60;;;;;;;3.71;75.36;100346.34;10273881;28;20113;-63
2023/01/20 10:01:51;;;;;;;41.65;16.40;;;;;;;3.69;75.28;100343.84;10276254;28;20125;-64
2023/01/20 10:07:32;;;;;;;46.35;17.00;;;;;;;3.84;74.89;100346.97;10275337;28;20138;-64
2023/01/20 10:12:41;;;;;;;44.70;17.55;;;;;;;4.09;74.67;100345.69;10260521;28;20591;-65
2023/01/20 10:18:12;;;;;;;48.05;17.33;;;;;;;4.25;75.09;100357.66;10276745;28;20073;-66
2023/01/20 10:23:20;;;;;;;49.08;17.85;;;;;;;4.13;75.14;100346.28;10273544;28;20063;-64
2023/01/20 10:28:31;;;;;;;40.53;17.65;;;;;;;4.29;75.01;100353.75;10272500;28;20138;-64
2023/01/20 10:33:44;;;;;;;38.45;16.20;;;;;;;4.39;74.82;100359.09;10258617;28;20066;-65
2023/01/20 10:38:53;;;;;;;41.00;17.65;;;;;;;4.59;74.98;100352.00;10276325;28;20082;-63
2023/01/20 10:43:56;;;;;;;39.50;16.58;;;;;;;4.66;74.72;100350.44;10275206;28;20125;-64
2023/01/20 10:49:30;;;;;;;40.65;18.23;;;;;;;4.82;74.42;100355.22;10275251;28;20059;-64
2023/01/20 10:54:45;;;;;;;43.38;19.38;;;;;;;4.75;73.79;100350.47;10271593;28;20054;-63
2023/01/20 10:59:54;;;;;;;47.65;19.23;;;;;;;4.57;74.23;100362.78;10274460;28;20475;-63
2023/01/20 11:05:22;;;;;;;49.88;20.63;;;;;;;4.43;73.43;100361.34;10270525;28;20571;-65
2023/01/20 11:10:28;;;;;;;44.45;19.00;;;;;;;4.52;73.58;100359.66;10264633;28;20729;-65
2023/01/20 11:15:34;;;;;;;46.38;19.50;;;;;;;4.76;73.51;100359.31;10273688;28;20561;-65
2023/01/20 11:20:36;;;;;;;64.05;23.20;;;;;;;4.91;73.61;100359.72;10274262;28;20057;-65
2023/01/20 11:25:38;;;;;;;55.90;21.35;;;;;;;5.11;72.85;100350.75;10270839;28;20048;-65
2023/01/20 11:30:39;;;;;;;59.22;22.10;;;;;;;5.30;73.06;100365.91;10269737;28;20121;-65
2023/01/20 11:36:06;;;;;;;52.55;21.13;;;;;;;5.32;72.99;100363.94;10273911;28;20039;-64
2023/01/20 11:41:19;;;;;;;52.78;21.50;;;;;;;5.46;72.79;100359.16;10252057;28;20932;-64
2023/01/20 11:46:28;;;;;;;57.88;22.15;;;;;;;5.47;73.07;100369.69;10273108;28;20077;-65
2023/01/20 11:51:30;;;;;;;54.05;21.90;;;;;;;5.50;72.38;100364.06;10270887;28;20051;-65
2023/01/20 11:56:40;;;;;;;54.85;23.52;;;;;;;5.52;72.78;100369.25;10272542;28;20042;-65
2023/01/20 12:01:50;;;;;;;51.22;23.42;;;;;;;5.49;72.64;100370.38;10272841;28;20046;-63
2023/01/20 12:07:02;;;;;;;51.78;21.13;;;;;;;5.49;72.45;100372.19;10269569;28;20051;-64
2023/01/20 12:12:09;;;;;;;46.40;21.35;;;;;;;5.51;71.85;100371.09;10272283;28;20089;-65
2023/01/20 12:17:16;;;;;;;44.07;20.00;;;;;;;5.53;71.81;100373.63;10272537;28;20102;-64
2023/01/20 12:22:25;;;;;;;44.83;20.73;;;;;;;5.62;71.77;100372.72;10272025;28;20072;-65
2023/01/20 12:27:27;;;;;;;47.65;18.25;;;;;;;5.60;72.26;100380.03;10280233;28;20086;-65
2023/01/20 12:32:30;;;;;;;42.38;19.77;;;;;;;5.56;71.76;100383.97;10279807;28;20305;-65
2023/01/20 12:37:46;;;;;;;46.40;19.80;;;;;;;5.50;71.23;100373.88;10279483;28;20083;-65
2023/01/20 12:43:15;;;;;;;44.28;20.85;;;;;;;5.57;72.08;100380.34;10277790;28;20074;-65
2023/01/20 12:48:48;;;;;;;41.38;21.13;;;;;;;5.40;72.13;100376.56;10280008;28;20110;-64
2023/01/20 12:54:08;;;;;;;41.75;20.90;;;;;;;5.26;71.51;100377.00;10228301;28;20532;-64
2023/01/20 12:59:38;;;;;;;39.80;20.13;;;;;;;5.20;72.06;100375.72;10273877;28;20125;-65
2023/01/20 13:05:03;;;;;;;45.58;19.23;;;;;;;5.20;71.77;100383.72;10280039;28;20138;-66
2023/01/20 13:10:24;;;;;;;39.28;18.70;;;;;;;5.25;71.62;100383.28;10276426;28;20705;-65
2023/01/20 13:15:33;;;;;;;44.83;19.30;;;;;;;5.23;71.49;100388.75;10277048;28;20130;-66
2023/01/20 13:20:39;;;;;;;34.22;18.80;;;;;;;5.23;71.63;100396.75;10278057;28;20078;-66
2023/01/20 13:25:45;;;;;;;34.78;18.48;;;;;;;5.23;71.83;100402.09;10275497;28;20051;-66
2023/01/20 13:30:52;;;;;;;33.30;17.13;;;;;;;5.28;71.70;100388.34;10275470;28;20113;-65
2023/01/20 13:35:55;;;;;;;33.10;17.30;;;;;;;5.30;71.75;100397.88;10274653;28;20046;-66
2023/01/20 13:41:05;;;;;;;35.17;16.52;;;;;;;5.32;71.80;100395.91;10276927;28;20078;-68
2023/01/20 13:46:13;;;;;;;32.50;16.80;;;;;;;5.39;71.72;100396.22;10279346;28;20085;-66
2023/01/20 13:51:18;;;;;;;32.97;16.48;;;;;;;5.48;71.26;100395.34;10274855;28;20050;-66
2023/01/20 13:56:25;;;;;;;33.58;16.77;;;;;;;5.56;71.64;100402.63;10278627;28;21731;-65
2023/01/20 14:01:27;;;;;;;33.67;16.35;;;;;;;5.57;71.22;100405.16;10276047;28;20109;-65
2023/01/20 14:06:29;;;;;;;37.20;16.98;;;;;;;5.63;71.03;100408.22;10260606;28;20232;-65
2023/01/20 14:11:30;;;;;;;30.52;15.05;;;;;;;5.63;71.18;100414.44;10267686;28;20155;-66
2023/01/20 14:16:35;;;;;;;29.95;15.82;;;;;;;5.63;70.78;100409.09;10269921;28;20062;-64
2023/01/20 14:21:40;;;;;;;28.45;15.35;;;;;;;5.62;71.15;100411.91;10275599;28;20043;-66
2023/01/20 14:26:41;;;;;;;29.92;15.45;;;;;;;5.55;71.34;100417.81;10274357;28;20130;-65
2023/01/20 14:31:44;;;;;;;30.20;15.60;;;;;;;5.58;70.96;100416.66;10253212;28;20486;-66
2023/01/20 14:36:46;;;;;;;28.60;15.40;;;;;;;5.60;71.19;100422.69;10273992;28;20050;-64
2023/01/20 14:41:53;;;;;;;30.50;15.18;;;;;;;5.55;71.45;100422.31;10274552;28;20061;-66
2023/01/20 14:47:00;;;;;;;28.27;15.97;;;;;;;5.51;71.64;100431.53;10274294;28;20113;-66
2023/01/20 14:52:03;;;;;;;28.75;16.60;;;;;;;5.43;71.62;100434.06;10275253;28;20051;-66
2023/01/20 14:57:39;;;;;;;31.55;15.65;;;;;;;5.33;71.71;100439.41;10275645;28;20645;-66
2023/01/20 15:03:04;;;;;;;31.70;15.63;;;;;;;5.40;72.00;100442.38;10273371;28;20102;-65
2023/01/20 15:08:22;;;;;;;36.35;16.85;;;;;;;5.34;71.52;100441.94;10273765;28;20055;-66
2023/01/20 15:13:28;;;;;;;30.95;16.75;;;;;;;5.31;71.22;100454.69;10269334;28;20059;-66
2023/01/20 15:18:30;;;;;;;30.35;16.23;;;;;;;5.37;71.73;100451.47;10274303;28;20446;-65
2023/01/20 15:23:37;;;;;;;30.20;15.40;;;;;;;5.42;71.43;100456.41;10273878;28;20069;-65
2023/01/20 15:28:43;;;;;;;32.60;16.10;;;;;;;5.40;71.52;100455.69;10273266;28;20054;-66
2023/01/20 15:33:44;;;;;;;32.70;15.60;;;;;;;5.39;71.29;100460.19;10268410;28;20563;-66
2023/01/20 15:38:46;;;;;;;31.65;16.35;;;;;;;5.31;72.18;100462.69;10272773;28;20045;-65
2023/01/20 15:43:50;;;;;;;29.63;15.45;;;;;;;5.32;71.36;100464.38;10272276;28;20454;-65
2023/01/20 15:48:51;;;;;;;33.80;17.55;;;;;;;5.24;72.00;100467.75;10271613;28;20089;-65
2023/01/20 15:53:52;;;;;;;30.15;16.00;;;;;;;5.21;71.87;100476.00;10273261;28;20055;-65
2023/01/20 15:58:54;;;;;;;39.25;18.50;;;;;;;5.19;71.13;100477.13;10273018;28;20086;-65
2023/01/20 16:03:57;;;;;;;31.13;15.45;;;;;;;5.10;71.58;100490.31;10269703;28;20117;-67
2023/01/20 16:09:11;;;;;;;31.70;16.30;;;;;;;5.09;71.67;100493.09;10266818;28;20241;-66
2023/01/20 16:14:12;;;;;;;34.88;16.75;;;;;;;5.08;71.71;100502.06;10269671;28;20425;-64
2023/01/20 16:19:14;;;;;;;31.60;16.13;;;;;;;5.03;71.34;100497.13;10269422;28;20063;-63
2023/01/20 16:24:16;;;;;;;31.05;16.38;;;;;;;5.01;71.98;100514.25;10270052;28;20086;-63
2023/01/20 16:29:17;;;;;;;33.55;16.38;;;;;;;4.90;71.81;100513.38;10269835;28;20846;-64
2023/01/20 16:34:18;;;;;;;31.80;16.50;;;;;;;4.88;71.80;100519.84;10273107;28;20062;-65
2023/01/20 16:39:20;;;;;;;33.58;16.65;;;;;;;4.87;71.92;100518.13;10272614;28;20113;-64
2023/01/20 16:44:21;;;;;;;36.53;16.55;;;;;;;4.88;72.23;100525.16;10274219;28;20150;-64
2023/01/20 16:49:22;;;;;;;32.67;16.73;;;;;;;4.85;72.10;100531.56;10272749;28;20502;-64
2023/01/20 16:54:24;;;;;;;37.55;16.85;;;;;;;4.85;72.19;100536.91;10270957;28;20114;-66
2023/01/20 16:59:25;;;;;;;36.25;17.58;;;;;;;4.84;71.90;100532.56;10272034;28;20224;-62
2023/01/20 17:04:28;;;;;;;32.95;17.35;;;;;;;4.81;72.30;100538.16;10268065;28;20158;-63
2023/01/20 17:09:29;;;;;;;34.55;17.52;;;;;;;4.76;72.20;100537.72;10275787;28;20050;-62
2023/01/20 17:14:31;;;;;;;31.52;15.75;;;;;;;4.69;72.11;100548.06;10279518;28;20133;-64
2023/01/20 17:19:32;;;;;;;32.80;16.67;;;;;;;4.63;72.63;100542.41;10271926;28;20145;-63
2023/01/20 17:24:33;;;;;;;31.45;17.10;;;;;;;4.56;72.36;100560.72;10275860;28;20117;-62
2023/01/20 17:29:35;;;;;;;34.38;16.58;;;;;;;4.49;73.01;100556.94;10276642;28;20051;-63
2023/01/20 17:34:36;;;;;;;35.13;17.45;;;;;;;4.50;72.56;100559.47;10277511;28;20070;-63
2023/01/20 17:39:38;;;;;;;36.65;17.40;;;;;;;4.49;72.84;100565.75;10274692;28;20047;-62
2023/01/20 17:44:39;;;;;;;39.05;18.30;;;;;;;4.58;72.56;100564.09;10278684;28;20078;-63
2023/01/20 17:49:41;;;;;;;37.33;20.15;;;;;;;4.63;72.85;100574.38;10277208;28;20128;-64
2023/01/20 17:54:42;;;;;;;33.17;17.58;;;;;;;4.64;72.41;100586.69;10274553;28;20276;-63
2023/01/20 17:59:43;;;;;;;32.03;17.65;;;;;;;4.44;72.68;100596.38;10275423;28;20102;-61
2023/01/20 18:04:45;;;;;;;31.80;16.70;;;;;;;4.31;73.23;100589.44;10280915;28;20133;-62
2023/01/20 18:09:46;;;;;;;32.05;17.35;;;;;;;4.32;72.86;100593.78;10275214;28;20399;-62
2023/01/20 18:14:47;;;;;;;37.03;17.90;;;;;;;4.31;73.19;100597.44;10284617;28;20081;-61
2023/01/20 18:19:49;;;;;;;29.17;17.20;;;;;;;4.29;73.47;100609.19;10276467;28;20442;-62
2023/01/20 18:24:50;;;;;;;39.28;18.70;;;;;;;4.22;73.51;100616.81;10278556;28;20083;-62
2023/01/20 18:29:52;;;;;;;39.15;17.40;;;;;;;4.17;73.10;100609.22;10277498;28;20145;-61
2023/01/20 18:34:53;;;;;;;34.88;17.38;;;;;;;4.15;73.88;100623.66;10275439;28;20101;-62
2023/01/20 18:39:54;;;;;;;41.55;18.55;;;;;;;4.10;73.61;100615.19;10272173;28;20061;-60
2023/01/20 18:44:56;;;;;;;37.90;18.80;;;;;;;4.12;73.74;100619.41;10277630;28;20149;-60
2023/01/20 18:49:57;;;;;;;37.42;18.15;;;;;;;4.09;73.72;100629.47;10274615;28;20425;-60
2023/01/20 18:54:59;;;;;;;44.10;21.45;;;;;;;4.02;73.99;100633.59;10273147;28;20082;-60
2023/01/20 19:00:00;;;;;;;46.38;21.17;;;;;;;3.93;74.03;100644.03;10275374;28;20101;-59
2023/01/20 19:05:01;;;;;;;40.47;19.50;;;;;;;3.78;74.05;100648.78;10271637;28;20085;-63
2023/01/20 19:10:03;;;;;;;39.28;18.30;;;;;;;3.69;74.42;100644.22;10278843;28;20058;-60
2023/01/20 19:15:05;;;;;;;40.22;18.85;;;;;;;3.62;74.75;100652.81;10280215;28;20477;-60
2023/01/20 19:20:08;;;;;;;42.42;21.00;;;;;;;3.57;74.69;100659.34;10275003;28;20113;-58
2023/01/20 19:25:09;;;;;;;42.33;19.27;;;;;;;3.61;74.57;100651.13;10299301;28;20059;-59
2023/01/20 19:30:11;;;;;;;45.83;19.25;;;;;;;3.60;74.57;100655.59;10298836;28;20498;-60
2023/01/20 19:35:13;;;;;;;42.30;19.10;;;;;;;3.58;74.82;100660.19;10306541;28;20050;-60
2023/01/20 19:40:15;;;;;;;41.67;20.23;;;;;;;3.60;75.20;100666.22;10303997;28;20054;-60
2023/01/20 19:45:17;;;;;;;38.38;18.45;;;;;;;3.62;74.94;100672.25;10316861;28;20050;-64
2023/01/20 19:50:18;;;;;;;39.40;18.10;;;;;;;3.64;75.20;100682.78;10321558;28;20059;-62
2023/01/20 19:55:20;;;;;;;39.63;18.30;;;;;;;3.66;74.98;100684.34;10311010;28;20043;-59
2023/01/20 20:00:21;;;;;;;35.53;19.67;;;;;;;3.67;74.84;100690.50;10421235;23;20014;-60
2023/01/20 20:05:22;;;;;;;35.80;18.85;;;;;;;3.67;75.13;100701.97;10344798;28;20081;-59
2023/01/20 20:10:24;;;;;;;44.53;20.60;;;;;;;3.69;75.22;100702.72;10341491;28;20046;-58
2023/01/20 20:15:25;;;;;;;35.83;17.65;;;;;;;3.70;75.23;100709.69;10344241;28;20046;-59
2023/01/20 20:20:27;;;;;;;35.08;17.50;;;;;;;3.69;75.28;100713.34;10339826;28;20058;-58
2023/01/20 20:25:28;;;;;;;41.05;17.40;;;;;;;3.67;75.45;100715.25;10346631;28;20050;-58
2023/01/20 20:30:29;;;;;;;38.38;19.00;;;;;;;3.67;75.12;100719.72;10339503;28;20058;-57
2023/01/20 20:35:34;;;;;;;37.15;17.98;;;;;;;3.71;75.53;100721.16;10344183;28;20061;-59
2023/01/20 20:40:35;;;;;;;37.58;17.23;;;;;;;3.73;75.19;100725.41;10340132;28;20059;-59
2023/01/20 20:45:37;;;;;;;42.03;19.20;;;;;;;3.79;75.26;100732.03;10323661;28;20042;-59
2023/01/20 20:50:38;;;;;;;40.55;18.77;;;;;;;3.80;75.10;100738.22;10306012;28;20101;-61
2023/01/20 20:55:40;;;;;;;41.40;20.60;;;;;;;3.81;75.31;100734.56;10299623;28;20061;-63
2023/01/20 21:00:42;;;;;;;40.90;19.35;;;;;;;3.74;75.49;100743.03;10284025;28;20415;-63
2023/01/20 21:05:47;;;;;;;38.47;19.77;;;;;;;3.76;75.75;100743.78;10300939;28;20109;-63
2023/01/20 21:10:49;;;;;;;38.60;18.25;;;;;;;3.80;75.15;100749.69;10281026;28;20078;-64
2023/01/20 21:15:55;;;;;;;37.22;18.17;;;;;;;3.82;75.51;100758.41;10299150;28;20051;-62
2023/01/20 21:20:58;;;;;;;36.50;18.48;;;;;;;3.82;75.59;100761.06;10302014;28;20046;-63
2023/01/20 21:26:01;;;;;;;33.90;16.55;;;;;;;3.74;75.94;100766.97;10297601;28;20050;-61
2023/01/20 21:31:11;;;;;;;34.17;17.70;;;;;;;3.76;76.06;100767.69;10300805;28;20141;-60
2023/01/20 21:36:13;;;;;;;28.75;15.80;;;;;;;3.81;75.88;100770.00;10288036;28;20494;-60
2023/01/20 21:41:16;;;;;;;30.85;15.05;;;;;;;3.82;76.04;100784.97;10309365;28;20074;-60
2023/01/20 21:46:17;;;;;;;31.00;14.23;;;;;;;3.87;75.97;100772.19;10312174;28;20047;-60
2023/01/20 21:56:47;;;;;;;19.55;9.90;;;;;;;3.82;76.67;100786.81;10329336;28;20043;-59
2023/01/20 22:01:48;;;;;;;28.52;12.90;;;;;;;3.81;76.62;100798.41;10344783;28;20097;-59
2023/01/20 22:06:50;;;;;;;32.83;14.52;;;;;;;3.82;76.49;100802.75;10352260;28;20034;-59
2023/01/20 22:11:51;;;;;;;26.52;12.52;;;;;;;3.84;76.69;100806.97;10355176;28;20023;-61
2023/01/20 22:16:53;;;;;;;29.05;13.88;;;;;;;3.89;76.54;100820.78;10354717;28;20055;-60
2023/01/20 22:21:55;;;;;;;23.80;13.18;;;;;;;3.86;76.77;100828.13;10338444;28;20081;-60
2023/01/20 22:26:57;;;;;;;28.83;12.98;;;;;;;3.83;77.21;100828.38;10342464;28;20073;-60
2023/01/20 22:32:01;;;;;;;29.92;11.73;;;;;;;3.76;77.37;100834.16;10332719;28;20078;-61
2023/01/20 22:37:02;;;;;;;26.08;12.30;;;;;;;3.81;76.92;100851.56;10341761;28;20042;-62
2023/01/20 22:42:04;;;;;;;23.98;12.00;;;;;;;3.77;77.15;100845.66;10343174;28;20031;-61
2023/01/20 22:47:08;;;;;;;26.17;12.48;;;;;;;3.70;77.32;100865.72;10347884;28;20046;-60
2023/01/20 22:52:09;;;;;;;23.73;11.45;;;;;;;3.69;77.30;100859.56;10604427;23;20082;-64
2023/01/20 22:57:11;;;;;;;28.05;12.77;;;;;;;3.63;77.25;100872.47;10346010;28;20042;-61
2023/01/20 23:02:13;;;;;;;22.10;11.48;;;;;;;3.62;77.53;100876.94;10354764;28;20060;-61
2023/01/20 23:07:14;;;;;;;26.08;12.00;;;;;;;3.67;77.45;100868.59;10343492;28;20083;-59
2023/01/20 23:12:16;;;;;;;24.00;12.07;;;;;;;3.69;77.47;100875.50;10338604;28;20046;-59
2023/01/20 23:17:17;;;;;;;25.10;12.40;;;;;;;3.66;77.71;100883.72;10327054;28;20053;-60
2023/01/20 23:22:19;;;;;;;24.27;11.70;;;;;;;3.67;77.68;100892.53;10333639;28;20066;-61